createdAt,value
2018-04-14T00:04:08.862Z,90.00
2018-04-14T00:09:12.067Z,90.70
2018-04-14T00:14:15.265Z,91.00
2018-04-14T00:19:18.471Z,91.00
2018-04-14T00:24:21.673Z,91.70
2018-04-14T00:29:24.960Z,91.80
2018-04-14T00:34:28.584Z,93.30
2018-04-14T00:39:32.179Z,93.10
2018-04-14T00:44:35.386Z,93.10
2018-04-14T00:49:38.608Z,92.90
2018-04-14T00:54:42.235Z,94.30
2018-04-14T00:59:45.437Z,94.10
2018-04-14T01:04:50.574Z,95.50
2018-04-14T01:09:54.183Z,93.70
2018-04-14T01:14:57.408Z,93.70
2018-04-14T01:20:01.103Z,93.60
2018-04-14T01:25:04.328Z,93.60
2018-04-14T01:30:07.939Z,94.60
2018-04-14T01:35:11.563Z,95.90
2018-04-14T01:40:15.214Z,97.10
2018-04-14T01:45:18.458Z,97.10
2018-04-14T01:50:21.672Z,97.10
2018-04-14T01:55:25.395Z,96.80
2018-04-14T02:00:28.995Z,97.00
2018-04-14T02:05:32.916Z,97.00
2018-04-14T02:10:36.128Z,96.60
2018-04-14T02:15:39.762Z,97.20
2018-04-14T02:20:43.364Z,97.00
2018-04-14T02:25:46.970Z,97.50
2018-04-14T02:30:50.184Z,97.50
2018-04-14T02:35:53.795Z,97.20
2018-04-14T02:40:58.013Z,97.40
2018-04-14T02:46:01.225Z,97.40
2018-04-14T02:51:04.427Z,97.50
2018-04-14T02:56:07.629Z,96.90
2018-04-14T03:01:10.925Z,96.10
2018-04-14T03:06:14.185Z,95.70
2018-04-14T03:11:17.394Z,96.60
2018-04-14T03:16:20.657Z,97.00
2018-04-14T03:21:24.586Z,97.60
2018-04-14T03:26:27.806Z,97.70
2018-04-14T03:31:31.572Z,96.90
2018-04-14T03:36:34.922Z,97.00
2018-04-14T03:41:38.537Z,97.30
2018-04-14T03:46:42.155Z,97.20
2018-04-14T03:51:45.758Z,97.60
2018-04-14T03:56:48.981Z,97.60
2018-04-14T04:01:52.654Z,97.70
2018-04-14T04:06:55.865Z,97.70
2018-04-14T04:11:59.081Z,98.20
2018-04-14T04:17:02.291Z,97.70
2018-04-14T04:22:17.437Z,97.30
2018-04-14T04:27:20.684Z,97.40
2018-04-14T04:32:23.905Z,96.30
2018-04-14T04:37:27.544Z,96.20
2018-04-14T04:42:30.758Z,96.20
2018-04-14T04:47:33.955Z,95.90
2018-04-14T04:52:37.165Z,93.60
2018-04-14T04:57:40.375Z,95.80
2018-04-14T05:02:43.859Z,97.40
2018-04-14T05:07:47.083Z,97.30
2018-04-14T05:12:50.322Z,97.60
2018-04-14T05:17:53.585Z,98.40
2018-04-14T05:22:56.799Z,97.90
2018-04-14T05:28:00.028Z,98.20
2018-04-14T05:33:03.269Z,98.50
2018-04-14T05:38:07.180Z,98.40
2018-04-14T05:43:10.407Z,97.90
2018-04-14T05:48:13.641Z,97.10
2018-04-14T05:53:16.847Z,96.30
2018-04-14T05:58:20.028Z,96.10
2018-04-14T06:03:23.675Z,95.00
2018-04-14T06:08:26.883Z,95.00
2018-04-14T06:13:30.077Z,94.70
2018-04-14T06:18:33.270Z,94.80
2018-04-14T06:23:36.864Z,94.50
2018-04-14T06:28:40.953Z,94.50
2018-04-14T06:33:44.239Z,93.80
2018-04-14T06:38:47.498Z,91.80
2018-04-14T06:43:50.679Z,88.90
2018-04-14T06:48:53.868Z,87.90
2018-04-14T06:53:57.043Z,84.00
2018-04-14T06:59:00.248Z,82.80
2018-04-14T07:04:03.446Z,82.50
2018-04-14T07:09:07.031Z,80.90
2018-04-14T07:14:10.246Z,80.90
2018-04-14T07:19:13.832Z,80.10
2018-04-14T07:24:17.010Z,80.10
2018-04-14T07:29:20.196Z,79.90
2018-04-14T07:34:23.480Z,79.80
2018-04-14T07:39:27.112Z,79.20
2018-04-14T07:44:30.716Z,79.90
2018-04-14T07:49:34.343Z,79.00
2018-04-14T07:54:38.913Z,79.60
2018-04-14T07:59:42.100Z,79.60
2018-04-14T08:04:45.304Z,80.90
2018-04-14T08:09:48.519Z,79.60
2018-04-14T08:14:51.897Z,79.50
2018-04-14T08:19:55.504Z,78.50
2018-04-14T08:24:59.110Z,78.40
2018-04-14T08:30:02.345Z,78.40
2018-04-14T08:35:05.924Z,76.50
2018-04-14T08:40:09.119Z,76.50
2018-04-14T08:45:12.317Z,76.90
2018-04-14T08:50:15.652Z,78.10
2018-04-14T08:55:18.850Z,77.00
2018-04-14T09:00:22.039Z,75.00
2018-04-14T09:05:25.252Z,74.50
2018-04-14T09:10:28.462Z,74.40
2018-04-14T09:15:31.650Z,73.10
2018-04-14T09:20:34.889Z,73.60
2018-04-14T09:25:38.092Z,72.40
2018-04-14T09:30:41.680Z,71.00
2018-04-14T09:35:44.885Z,71.00
2018-04-14T09:40:48.983Z,70.90
2018-04-14T09:45:52.213Z,70.60
2018-04-14T09:50:55.463Z,68.90
2018-04-14T09:55:58.667Z,67.10
2018-04-14T10:01:02.285Z,66.40
2018-04-14T10:06:05.494Z,66.40
2018-04-14T10:11:08.719Z,65.40
2018-04-14T10:16:12.067Z,65.70
2018-04-14T10:21:15.685Z,64.70
2018-04-14T10:26:18.885Z,64.70
2018-04-14T10:31:22.080Z,64.10
2018-04-14T10:36:25.309Z,64.00
2018-04-14T10:41:28.517Z,63.80
2018-04-14T10:46:32.159Z,62.20
2018-04-14T10:51:35.363Z,62.20
2018-04-14T10:56:38.609Z,61.80
2018-04-14T11:01:41.795Z,60.70
2018-04-14T11:06:45.019Z,60.50
2018-04-14T11:11:48.207Z,60.30
2018-04-14T11:16:51.411Z,62.10
2018-04-14T11:21:54.664Z,60.60
2018-04-14T11:26:58.272Z,62.20
2018-04-14T11:32:01.486Z,62.20
2018-04-14T11:37:04.695Z,59.20
2018-04-14T11:42:07.924Z,57.40
2018-04-14T11:47:11.134Z,54.30
2018-04-14T11:52:14.407Z,53.80
2018-04-14T11:57:17.626Z,51.80
2018-04-14T12:02:21.248Z,51.10
2018-04-14T12:07:24.467Z,51.10
2018-04-14T12:12:27.739Z,51.00
2018-04-14T12:17:30.962Z,49.20
2018-04-14T12:22:34.608Z,47.10
2018-04-14T12:27:37.878Z,47.10
2018-04-14T12:32:41.494Z,46.70
2018-04-14T12:37:45.107Z,46.20
2018-04-14T12:42:48.720Z,46.00
2018-04-14T12:47:52.460Z,44.80
2018-04-14T12:52:55.698Z,44.80
2018-04-14T12:57:59.046Z,44.00
2018-04-14T13:03:02.667Z,43.60
2018-04-14T13:08:06.293Z,42.90
2018-04-14T13:13:09.912Z,44.40
2018-04-14T13:18:13.125Z,44.40
2018-04-14T13:23:16.343Z,46.70
2018-04-14T13:28:19.563Z,44.10
2018-04-14T13:33:22.778Z,43.70
2018-04-14T13:38:26.022Z,46.90
2018-04-14T13:43:29.678Z,48.30
2018-04-14T13:48:32.915Z,48.30
2018-04-14T13:53:36.194Z,47.90
2018-04-14T13:58:40.021Z,46.20
2018-04-14T14:03:43.484Z,46.10
2018-04-14T14:08:47.482Z,46.40
2018-04-14T14:13:50.836Z,45.90
2018-04-14T14:18:54.668Z,46.00
2018-04-14T14:23:58.457Z,46.90
2018-04-14T14:29:02.233Z,48.40
2018-04-14T14:34:06.251Z,48.40
2018-04-14T14:39:09.516Z,48.90
2018-04-14T14:44:13.522Z,48.20
2018-04-14T14:49:17.552Z,48.80
2018-04-14T14:54:21.082Z,48.80
2018-04-14T14:59:24.742Z,50.50
2018-04-14T15:04:28.090Z,49.90
2018-04-14T15:09:32.299Z,51.40
2018-04-14T15:14:36.232Z,51.40
2018-04-14T15:19:40.056Z,52.60
2018-04-14T15:24:43.535Z,52.60
2018-04-14T15:29:46.965Z,51.50
2018-04-14T15:34:50.218Z,51.60
2018-04-14T15:39:53.452Z,52.10
2018-04-14T15:44:57.137Z,51.90
2018-04-14T15:50:00.381Z,52.40
2018-04-14T15:55:03.831Z,52.80
2018-04-14T16:00:07.535Z,53.60
2018-04-14T16:05:11.237Z,54.30
2018-04-14T16:10:14.490Z,54.30
2018-04-14T16:15:17.718Z,53.00
2018-04-14T16:20:20.983Z,54.60
2018-04-14T16:25:24.195Z,54.40
2018-04-14T16:30:27.592Z,54.50
2018-04-14T16:35:31.091Z,54.80
2018-04-14T16:40:36.686Z,55.20
2018-04-14T16:45:41.120Z,55.50
2018-04-14T16:50:45.028Z,55.30
2018-04-14T16:55:48.522Z,56.20
2018-04-14T17:00:51.791Z,56.40
2018-04-14T17:05:55.131Z,57.30
2018-04-14T17:10:58.772Z,57.20
2018-04-14T17:16:02.004Z,57.20
2018-04-14T17:21:05.330Z,58.20
2018-04-14T17:26:08.641Z,58.40
2018-04-14T17:31:11.906Z,58.70
2018-04-14T17:36:15.641Z,60.10
2018-04-14T17:41:18.911Z,60.10
2018-04-14T17:46:22.535Z,60.50
2018-04-14T17:51:26.167Z,60.70
2018-04-14T17:56:29.390Z,60.70
2018-04-14T18:01:32.740Z,61.10
2018-04-14T18:06:35.964Z,61.00
2018-04-14T18:11:39.253Z,61.50
2018-04-14T18:16:42.519Z,61.60
2018-04-14T18:21:45.937Z,61.70
2018-04-14T18:26:49.159Z,61.60
2018-04-14T18:31:52.391Z,61.90
2018-04-14T18:36:56.096Z,61.60
2018-04-14T18:41:59.741Z,61.60
2018-04-14T18:47:02.972Z,61.50
2018-04-14T18:52:06.249Z,61.50
2018-04-14T18:57:09.467Z,61.30
2018-04-14T19:02:12.810Z,61.70
2018-04-14T19:07:16.307Z,61.40
2018-04-14T19:12:19.676Z,60.90
2018-04-14T19:17:23.755Z,61.10
2018-04-14T19:22:27.008Z,61.10
2018-04-14T19:27:30.947Z,60.70
2018-04-14T19:32:34.227Z,60.80
2018-04-14T19:37:37.890Z,61.00
2018-04-14T19:42:41.536Z,61.00
2018-04-14T19:47:44.742Z,61.00
2018-04-14T19:52:48.035Z,61.10
2018-04-14T19:57:51.478Z,61.40
2018-04-14T20:02:55.116Z,62.00
2018-04-14T20:07:58.502Z,62.00
2018-04-14T20:13:02.704Z,62.60
2018-04-14T20:18:06.454Z,62.60
2018-04-14T20:23:10.380Z,62.50
2018-04-14T20:28:13.995Z,62.90
2018-04-14T20:33:17.610Z,63.00
2018-04-14T20:38:20.908Z,63.00
2018-04-14T20:43:26.253Z,63.40
2018-04-14T20:48:29.635Z,63.50
2018-04-14T20:53:33.389Z,63.70
2018-04-14T20:58:36.714Z,64.00
2018-04-14T21:03:41.330Z,64.90
2018-04-14T21:08:45.557Z,65.20
2018-04-14T21:13:49.782Z,65.70
2018-04-14T21:18:53.254Z,65.70
2018-04-14T21:23:56.454Z,65.90
2018-04-14T21:28:59.872Z,66.50
2018-04-14T21:34:03.754Z,66.70
2018-04-14T21:39:07.240Z,67.00
2018-04-14T21:44:10.701Z,67.50
2018-04-14T21:49:14.573Z,67.20
2018-04-14T21:54:18.521Z,67.50
2018-04-14T21:59:22.149Z,67.80
2018-04-14T22:04:25.744Z,67.80
2018-04-14T22:09:29.859Z,68.70
2018-04-14T22:14:33.900Z,68.70
2018-04-14T22:19:37.124Z,69.70
2018-04-14T22:24:40.360Z,71.70
2018-04-14T22:29:43.677Z,72.80
2018-04-14T22:34:47.188Z,73.90
2018-04-14T22:39:50.430Z,74.30
2018-04-14T22:44:54.047Z,74.10
2018-04-14T22:49:57.678Z,75.20
2018-04-14T22:55:00.891Z,75.30
2018-04-14T23:00:04.134Z,75.20
2018-04-14T23:05:07.463Z,75.40
2018-04-14T23:10:10.785Z,75.30
2018-04-14T23:15:14.142Z,75.30
2018-04-14T23:20:17.383Z,75.00
2018-04-14T23:25:20.593Z,75.60
2018-04-14T23:30:23.814Z,76.40
2018-04-14T23:35:27.433Z,77.10
2018-04-14T23:40:30.655Z,77.10
2018-04-14T23:45:33.886Z,77.30
2018-04-14T23:50:37.238Z,77.80
2018-04-14T23:55:40.902Z,78.80
